createdAt,value
2022-12-03T00:00:13.228Z,16.20
2022-12-03T00:02:40.216Z,17.30
2022-12-03T00:05:06.688Z,16.80
2022-12-03T00:07:33.020Z,16.23
2022-12-03T00:09:59.558Z,14.65
2022-12-03T00:12:25.893Z,17.75
2022-12-03T00:14:52.436Z,16.42
2022-12-03T00:17:18.717Z,17.35
2022-12-03T00:19:45.057Z,16.02
2022-12-03T00:22:12.859Z,15.68
2022-12-03T00:24:39.355Z,16.55
2022-12-03T00:27:05.736Z,16.55
2022-12-03T00:29:32.160Z,16.77
2022-12-03T00:31:58.518Z,16.63
2022-12-03T00:34:24.936Z,17.42
2022-12-03T00:36:51.288Z,17.08
2022-12-03T00:39:17.781Z,16.77
2022-12-03T00:41:44.165Z,16.85
2022-12-03T00:44:11.770Z,15.88
2022-12-03T00:46:38.170Z,16.30
2022-12-03T00:49:04.798Z,15.57
2022-12-03T00:51:31.155Z,17.40
2022-12-03T00:53:57.436Z,16.75
2022-12-03T00:56:24.018Z,16.75
2022-12-03T00:58:50.394Z,15.93
2022-12-03T01:01:17.722Z,16.58
2022-12-03T01:03:44.236Z,17.02
2022-12-03T01:06:10.536Z,16.15
2022-12-03T01:08:37.987Z,15.93
2022-12-03T01:11:24.351Z,15.48
2022-12-03T01:13:50.684Z,16.35
2022-12-03T01:16:17.060Z,15.85
2022-12-03T01:18:43.476Z,16.75
2022-12-03T01:21:09.841Z,16.13
2022-12-03T01:23:36.195Z,15.65
2022-12-03T01:26:02.520Z,17.95
2022-12-03T01:28:29.395Z,17.02
2022-12-03T01:31:14.427Z,15.40
2022-12-03T01:33:40.842Z,15.98
2022-12-03T01:36:07.312Z,16.42
2022-12-03T01:38:33.703Z,16.63
2022-12-03T01:41:01.264Z,16.63
2022-12-03T01:43:27.589Z,16.92
2022-12-03T01:45:53.902Z,16.63
2022-12-03T01:48:20.392Z,17.73
2022-12-03T01:50:46.749Z,16.10
2022-12-03T01:53:15.401Z,16.00
2022-12-03T01:55:45.545Z,16.65
2022-12-03T01:58:15.316Z,16.55
2022-12-03T02:00:41.677Z,16.17
2022-12-03T02:03:11.499Z,16.00
2022-12-03T02:05:37.878Z,17.50
2022-12-03T02:08:23.191Z,15.65
2022-12-03T02:10:49.505Z,16.80
2022-12-03T02:13:15.824Z,15.93
2022-12-03T02:15:42.191Z,15.88
2022-12-03T02:18:09.176Z,16.88
2022-12-03T02:20:39.612Z,15.98
2022-12-03T02:23:14.191Z,17.87
2022-12-03T02:25:40.552Z,16.80
2022-12-03T02:28:08.867Z,17.30
2022-12-03T02:30:35.145Z,15.35
2022-12-03T02:33:02.080Z,16.38
2022-12-03T02:35:33.348Z,15.82
2022-12-03T02:38:06.349Z,15.67
2022-12-03T02:40:33.258Z,17.08
2022-12-03T02:43:01.264Z,17.08
2022-12-03T02:45:29.668Z,17.00
2022-12-03T02:48:02.561Z,16.70
2022-12-03T02:50:30.971Z,15.45
2022-12-03T02:52:58.794Z,17.33
2022-12-03T02:55:25.271Z,17.00
2022-12-03T02:57:51.666Z,16.23
2022-12-03T03:00:18.600Z,16.23
2022-12-03T03:02:46.155Z,15.85
2022-12-03T03:05:13.778Z,17.50
2022-12-03T03:07:40.384Z,16.45
2022-12-03T03:10:07.742Z,16.23
2022-12-03T03:12:38.979Z,17.02
2022-12-03T03:15:06.115Z,17.05
2022-12-03T03:17:32.476Z,16.25
2022-12-03T03:19:59.123Z,16.08
2022-12-03T03:22:32.598Z,16.48
2022-12-03T03:24:59.045Z,16.27
2022-12-03T03:27:25.739Z,16.30
2022-12-03T03:29:52.985Z,15.32
2022-12-03T03:32:19.555Z,17.00
2022-12-03T03:34:45.946Z,16.63
2022-12-03T03:37:12.225Z,17.08
2022-12-03T03:39:38.786Z,17.02
2022-12-03T03:42:05.321Z,17.55
2022-12-03T03:44:32.737Z,17.50
2022-12-03T03:46:59.621Z,17.52
2022-12-03T03:49:26.086Z,16.58
2022-12-03T03:51:52.460Z,16.70
2022-12-03T03:54:18.776Z,15.43
2022-12-03T03:56:46.393Z,17.52
2022-12-03T03:59:13.553Z,17.88
2022-12-03T04:01:39.952Z,17.00
2022-12-03T04:04:11.391Z,17.48
2022-12-03T04:06:37.773Z,17.15
2022-12-03T04:09:04.154Z,17.33
2022-12-03T04:11:49.425Z,17.35
2022-12-03T04:14:15.698Z,18.48
2022-12-03T04:16:42.085Z,17.30
2022-12-03T04:19:08.463Z,18.58
2022-12-03T04:21:53.549Z,18.73
2022-12-03T04:24:19.886Z,19.15
2022-12-03T04:27:04.859Z,17.98
2022-12-03T04:29:31.221Z,18.15
2022-12-03T04:32:16.352Z,18.35
2022-12-03T04:35:01.286Z,17.40
2022-12-03T04:37:27.691Z,18.25
2022-12-03T04:39:54.181Z,17.98
2022-12-03T04:42:20.633Z,18.30
2022-12-03T04:44:46.996Z,18.65
2022-12-03T04:47:17.920Z,17.92
2022-12-03T04:49:46.713Z,19.58
2022-12-03T04:52:14.109Z,18.30
2022-12-03T04:54:40.469Z,19.10
2022-12-03T04:57:07.456Z,19.25
2022-12-03T04:59:34.255Z,16.77
2022-12-03T05:02:00.600Z,17.92
2022-12-03T05:04:27.006Z,18.05
2022-12-03T05:06:53.586Z,18.33
2022-12-03T05:09:19.929Z,18.52
2022-12-03T05:11:46.281Z,19.02
2022-12-03T05:14:12.777Z,19.02
2022-12-03T05:16:39.193Z,18.55
2022-12-03T05:19:06.247Z,18.23
2022-12-03T05:21:32.609Z,19.42
2022-12-03T05:23:58.923Z,18.42
2022-12-03T05:26:25.486Z,19.58
2022-12-03T05:28:52.134Z,19.95
2022-12-03T05:31:19.065Z,19.30
2022-12-03T05:33:45.481Z,19.25
2022-12-03T05:36:11.894Z,19.33
2022-12-03T05:38:38.486Z,19.80
2022-12-03T05:41:24.914Z,19.83
2022-12-03T05:43:51.248Z,20.05
2022-12-03T05:46:17.739Z,20.42
2022-12-03T05:48:44.447Z,19.85
2022-12-03T05:51:10.943Z,19.77
2022-12-03T05:53:37.236Z,20.42
2022-12-03T05:56:03.582Z,19.90
2022-12-03T05:58:29.876Z,19.42
2022-12-03T06:00:56.277Z,20.13
2022-12-03T06:03:22.786Z,18.75
2022-12-03T06:05:49.202Z,19.75
2022-12-03T06:08:15.601Z,21.00
2022-12-03T06:10:41.976Z,19.17
2022-12-03T06:13:08.785Z,21.73
2022-12-03T06:15:40.411Z,20.13
2022-12-03T06:18:09.781Z,22.23
2022-12-03T06:20:36.220Z,21.15
2022-12-03T06:23:02.693Z,21.40
2022-12-03T06:25:29.180Z,21.02
2022-12-03T06:27:55.527Z,21.38
2022-12-03T06:30:21.836Z,21.50
2022-12-03T06:32:48.150Z,22.38
2022-12-03T06:35:14.697Z,21.85
2022-12-03T06:37:41.199Z,21.73
2022-12-03T06:40:07.997Z,21.15
2022-12-03T06:42:34.747Z,19.45
2022-12-03T06:45:01.131Z,20.50
2022-12-03T06:47:29.439Z,20.73
2022-12-03T06:49:55.845Z,21.45
2022-12-03T06:52:22.194Z,19.23
2022-12-03T06:54:48.502Z,20.77
2022-12-03T06:57:14.866Z,18.88
2022-12-03T06:59:41.366Z,20.95
2022-12-03T07:02:07.878Z,19.20
2022-12-03T07:04:34.280Z,19.48
2022-12-03T07:07:00.675Z,19.95
2022-12-03T07:09:27.077Z,20.42
2022-12-03T07:11:53.451Z,19.48
2022-12-03T07:14:19.778Z,20.55
2022-12-03T07:16:46.186Z,19.23
2022-12-03T07:19:12.645Z,20.83
2022-12-03T07:21:39.228Z,18.33
2022-12-03T07:24:05.956Z,18.70
2022-12-03T07:26:32.633Z,18.60
2022-12-03T07:28:59.439Z,19.48
2022-12-03T07:31:26.000Z,19.80
2022-12-03T07:33:52.446Z,20.67
2022-12-03T07:36:18.795Z,18.58
2022-12-03T07:38:45.141Z,19.30
2022-12-03T07:41:11.675Z,18.58
2022-12-03T07:43:38.160Z,18.27
2022-12-03T07:46:04.551Z,19.10
2022-12-03T07:48:31.300Z,17.90
2022-12-03T07:50:58.522Z,17.85
2022-12-03T07:53:24.858Z,18.63
2022-12-03T07:55:51.263Z,19.42
2022-12-03T07:58:17.679Z,19.40
2022-12-03T08:00:44.171Z,18.52
2022-12-03T08:03:10.587Z,18.73
2022-12-03T08:05:36.904Z,19.27
2022-12-03T08:08:03.399Z,18.60
2022-12-03T08:10:29.872Z,19.27
2022-12-03T08:12:58.016Z,18.30
2022-12-03T08:15:25.422Z,18.00
2022-12-03T08:17:54.759Z,18.40
2022-12-03T08:20:23.385Z,18.60
2022-12-03T08:22:51.235Z,19.30
2022-12-03T08:25:24.688Z,18.92
2022-12-03T08:27:51.965Z,19.00
2022-12-03T08:30:18.872Z,18.42
2022-12-03T08:32:47.099Z,18.88
2022-12-03T08:35:18.857Z,19.67
2022-12-03T08:37:50.881Z,18.40
2022-12-03T08:40:20.135Z,19.50
2022-12-03T08:42:46.491Z,18.48
2022-12-03T08:45:28.311Z,17.67
2022-12-03T08:48:12.560Z,19.73
2022-12-03T08:50:39.962Z,18.23
2022-12-03T08:53:25.425Z,18.90
2022-12-03T08:55:52.967Z,19.98
2022-12-03T08:58:28.534Z,21.23
2022-12-03T09:01:00.358Z,21.02
2022-12-03T09:03:29.805Z,21.55
2022-12-03T09:05:56.304Z,21.17
2022-12-03T09:08:22.933Z,21.60
2022-12-03T09:10:49.557Z,20.90
2022-12-03T09:13:15.893Z,21.73
2022-12-03T09:15:42.180Z,22.08
2022-12-03T09:18:08.561Z,20.92
2022-12-03T09:20:34.985Z,22.15
2022-12-03T09:23:04.391Z,20.25
2022-12-03T09:25:30.677Z,20.73
2022-12-03T09:27:57.015Z,21.52
2022-12-03T09:30:23.627Z,21.30
2022-12-03T09:32:49.993Z,20.92
2022-12-03T09:35:16.497Z,23.67
2022-12-03T09:37:45.121Z,23.15
2022-12-03T09:40:11.817Z,21.83
2022-12-03T09:42:40.325Z,22.80
2022-12-03T09:45:10.715Z,21.10
2022-12-03T09:47:37.767Z,21.43
2022-12-03T09:50:05.026Z,22.13
2022-12-03T09:52:34.044Z,19.52
2022-12-03T09:55:05.588Z,21.83
2022-12-03T09:59:58.787Z,19.63
2022-12-03T10:02:28.213Z,21.08
2022-12-03T10:04:55.513Z,21.08
2022-12-03T10:07:25.323Z,21.20
2022-12-03T10:09:52.166Z,21.23
2022-12-03T10:12:22.719Z,20.65
2022-12-03T10:14:49.278Z,21.30
2022-12-03T10:17:16.276Z,20.55
2022-12-03T10:19:43.007Z,19.88
2022-12-03T10:22:09.505Z,20.40
2022-12-03T10:24:36.800Z,20.80
2022-12-03T10:27:23.721Z,19.52
2022-12-03T10:29:55.464Z,19.83
2022-12-03T10:32:27.078Z,20.92
2022-12-03T10:35:07.020Z,20.48
2022-12-03T10:37:33.646Z,19.75
2022-12-03T10:40:11.157Z,18.90
2022-12-03T10:42:39.422Z,19.33
2022-12-03T10:45:12.612Z,20.13
2022-12-03T10:47:39.457Z,18.52
2022-12-03T10:50:07.089Z,17.83
2022-12-03T10:52:33.528Z,18.48
2022-12-03T10:55:00.202Z,17.65
2022-12-03T10:57:26.796Z,18.45
2022-12-03T10:59:53.234Z,19.40
2022-12-03T11:02:22.055Z,18.75
2022-12-03T11:04:48.963Z,18.55
2022-12-03T11:07:17.357Z,17.88
2022-12-03T11:09:45.528Z,18.67
2022-12-03T11:12:20.195Z,18.95
2022-12-03T11:14:56.501Z,17.70
2022-12-03T11:17:41.870Z,18.73
2022-12-03T11:20:16.815Z,18.75
2022-12-03T11:22:50.092Z,20.83
2022-12-03T11:25:26.334Z,18.08
2022-12-03T11:28:11.536Z,19.42
2022-12-03T11:30:59.899Z,19.52
2022-12-03T11:33:26.563Z,19.23
2022-12-03T11:36:05.264Z,19.92
2022-12-03T11:38:37.982Z,19.27
2022-12-03T11:41:08.373Z,19.10
2022-12-03T11:43:57.453Z,19.77
2022-12-03T11:46:36.151Z,19.02
2022-12-03T11:49:04.744Z,17.67
2022-12-03T11:51:31.157Z,19.15
2022-12-03T11:53:58.544Z,17.77
2022-12-03T11:56:26.268Z,18.95
2022-12-03T11:59:00.093Z,17.92
2022-12-03T12:01:39.072Z,18.50
2022-12-03T12:04:06.451Z,17.52
2022-12-03T12:06:40.468Z,18.35
2022-12-03T12:09:07.486Z,18.25
2022-12-03T12:11:35.292Z,16.00
2022-12-03T12:14:06.486Z,16.52
2022-12-03T12:19:19.302Z,16.35
2022-12-03T12:21:50.798Z,15.18
2022-12-03T12:24:35.986Z,16.13
2022-12-03T12:27:16.634Z,16.33
2022-12-03T12:29:45.811Z,16.70
2022-12-03T12:32:15.037Z,17.10
2022-12-03T12:34:42.581Z,17.17
2022-12-03T12:37:10.949Z,18.52
2022-12-03T12:39:37.453Z,17.20
2022-12-03T12:42:22.462Z,16.38
2022-12-03T12:44:49.837Z,16.83
2022-12-03T12:47:16.192Z,18.52
2022-12-03T12:49:45.123Z,18.95
2022-12-03T12:52:14.581Z,19.13
2022-12-03T12:54:41.188Z,20.65
2022-12-03T12:57:12.762Z,22.33
2022-12-03T12:59:39.496Z,21.63
2022-12-03T13:02:22.677Z,21.92
2022-12-03T13:04:49.208Z,21.10
2022-12-03T13:07:15.634Z,21.85
2022-12-03T13:09:42.060Z,20.88
2022-12-03T13:12:17.886Z,21.55
2022-12-03T13:14:45.165Z,20.98
2022-12-03T13:17:16.513Z,20.63
2022-12-03T13:19:48.255Z,20.77
2022-12-03T13:22:21.680Z,20.85
2022-12-03T13:24:50.706Z,20.83
2022-12-03T13:27:17.118Z,20.77
2022-12-03T13:29:44.392Z,20.23
2022-12-03T13:32:12.141Z,20.27
2022-12-03T13:34:38.568Z,20.13
2022-12-03T13:37:16.424Z,21.15
2022-12-03T13:39:49.965Z,20.33
2022-12-03T13:42:38.828Z,21.02
2022-12-03T13:45:14.486Z,22.48
2022-12-03T13:47:42.860Z,21.08
2022-12-03T13:50:19.769Z,23.08
2022-12-03T13:52:46.288Z,23.38
2022-12-03T13:55:25.510Z,22.42
2022-12-03T13:57:52.189Z,22.50
2022-12-03T14:00:18.737Z,20.35
2022-12-03T14:02:45.199Z,21.25
2022-12-03T14:05:11.602Z,21.80
2022-12-03T14:07:38.530Z,20.52
2022-12-03T14:10:05.729Z,20.60
2022-12-03T14:12:33.883Z,20.48
2022-12-03T14:15:05.461Z,20.08
2022-12-03T14:17:34.671Z,21.02
2022-12-03T14:20:01.834Z,19.30
2022-12-03T14:22:28.959Z,19.38
2022-12-03T14:24:58.148Z,19.17
2022-12-03T14:27:24.916Z,19.75
2022-12-03T14:29:52.476Z,18.02
2022-12-03T14:32:19.195Z,19.15
2022-12-03T14:34:45.573Z,19.25
2022-12-03T14:37:11.882Z,16.73
2022-12-03T14:39:38.541Z,18.40
2022-12-03T14:42:14.105Z,17.15
2022-12-03T14:44:41.403Z,17.88
2022-12-03T14:47:07.813Z,17.60
2022-12-03T14:49:34.713Z,16.73
2022-12-03T14:52:01.280Z,16.25
2022-12-03T14:54:27.703Z,17.60
2022-12-03T14:56:54.041Z,18.33
2022-12-03T14:59:24.538Z,17.38
2022-12-03T15:01:54.284Z,17.90
2022-12-03T15:04:20.729Z,17.73
2022-12-03T15:06:47.225Z,18.55
2022-12-03T15:09:13.893Z,18.02
2022-12-03T15:11:46.095Z,18.30
2022-12-03T15:14:13.200Z,19.05
2022-12-03T15:16:39.661Z,18.60
2022-12-03T15:19:06.130Z,18.00
2022-12-03T15:21:35.812Z,30.92
2022-12-03T15:24:05.600Z,21.63
2022-12-03T15:26:32.339Z,34.25
2022-12-03T15:28:58.704Z,20.17
2022-12-03T15:31:25.108Z,19.27
2022-12-03T15:33:57.006Z,20.45
2022-12-03T15:36:23.475Z,19.42
2022-12-03T15:38:49.910Z,21.30
2022-12-03T15:41:24.899Z,20.75
2022-12-03T15:43:54.332Z,20.58
2022-12-03T15:46:20.764Z,19.85
2022-12-03T15:48:47.601Z,20.58
2022-12-03T15:51:14.186Z,20.92
2022-12-03T15:53:41.042Z,22.45
2022-12-03T15:56:07.764Z,19.98
2022-12-03T15:58:34.330Z,20.42
2022-12-03T16:01:02.185Z,20.45
2022-12-03T16:03:28.794Z,20.40
2022-12-03T16:05:55.444Z,20.45
2022-12-03T16:08:22.078Z,21.60
2022-12-03T16:10:48.630Z,21.08
2022-12-03T16:13:15.023Z,22.27
2022-12-03T16:15:41.495Z,21.70
2022-12-03T16:18:08.057Z,22.33
2022-12-03T16:20:34.444Z,22.55
2022-12-03T16:23:01.165Z,20.83
2022-12-03T16:25:27.553Z,23.05
2022-12-03T16:27:53.913Z,22.60
2022-12-03T16:30:20.702Z,21.88
2022-12-03T16:32:47.659Z,23.45
2022-12-03T16:35:13.994Z,21.35
2022-12-03T16:37:42.706Z,21.52
2022-12-03T16:40:09.673Z,21.13
2022-12-03T16:42:38.022Z,22.55
2022-12-03T16:45:10.498Z,22.25
2022-12-03T16:47:37.112Z,21.05
2022-12-03T16:50:05.417Z,21.33
2022-12-03T16:52:32.197Z,22.30
2022-12-03T16:54:58.864Z,22.20
2022-12-03T16:57:30.257Z,22.75
2022-12-03T16:59:59.628Z,22.25
2022-12-03T17:02:27.649Z,22.13
2022-12-03T17:04:54.400Z,22.13
2022-12-03T17:07:23.365Z,23.77
2022-12-03T17:09:49.805Z,22.75
2022-12-03T17:12:16.296Z,22.63
2022-12-03T17:14:42.812Z,24.30
2022-12-03T17:17:09.266Z,23.35
2022-12-03T17:19:38.253Z,23.38
2022-12-03T17:22:04.634Z,23.77
2022-12-03T17:24:31.024Z,23.35
2022-12-03T17:26:57.365Z,24.25
2022-12-03T17:29:23.794Z,24.35
2022-12-03T17:31:50.285Z,22.65
2022-12-03T17:34:16.995Z,23.90
2022-12-03T17:36:43.461Z,21.58
2022-12-03T17:39:09.845Z,23.52
2022-12-03T17:41:39.222Z,23.73
2022-12-03T17:44:10.191Z,24.65
2022-12-03T17:46:40.272Z,21.92
2022-12-03T17:49:06.904Z,23.85
2022-12-03T17:51:33.281Z,23.70
2022-12-03T17:54:03.330Z,23.15
2022-12-03T17:56:29.626Z,23.73
2022-12-03T17:58:57.041Z,24.90
2022-12-03T18:01:24.390Z,23.52
2022-12-03T18:03:50.827Z,24.75
2022-12-03T18:06:17.150Z,23.80
2022-12-03T18:08:43.696Z,23.70
2022-12-03T18:11:10.297Z,22.70
2022-12-03T18:13:37.026Z,25.02
2022-12-03T18:16:03.922Z,22.73
2022-12-03T18:18:30.311Z,23.38
2022-12-03T18:21:01.930Z,23.33
2022-12-03T18:23:28.901Z,23.10
2022-12-03T18:25:55.756Z,23.92
2022-12-03T18:28:23.429Z,25.98
2022-12-03T18:30:52.813Z,24.05
2022-12-03T18:33:21.439Z,24.10
2022-12-03T18:35:47.861Z,23.33
2022-12-03T18:38:14.972Z,24.15
2022-12-03T18:40:42.881Z,24.67
2022-12-03T18:43:12.988Z,24.45
2022-12-03T18:45:39.557Z,23.25
2022-12-03T18:48:16.724Z,24.42
2022-12-03T18:50:43.264Z,24.10
2022-12-03T18:53:16.621Z,24.13
2022-12-03T18:55:44.469Z,24.25
2022-12-03T18:58:11.334Z,23.48
2022-12-03T19:00:38.324Z,24.13
2022-12-03T19:03:05.334Z,24.73
2022-12-03T19:05:32.710Z,23.13
2022-12-03T19:07:59.607Z,24.08
2022-12-03T19:10:26.793Z,23.70
2022-12-03T19:12:53.223Z,23.85
2022-12-03T19:15:19.574Z,23.85
2022-12-03T19:17:49.288Z,22.98
2022-12-03T19:20:16.025Z,23.13
2022-12-03T19:22:42.398Z,23.20
2022-12-03T19:25:08.872Z,24.45
2022-12-03T19:27:38.166Z,24.30
2022-12-03T19:30:05.645Z,24.05
2022-12-03T19:32:36.377Z,24.85
2022-12-03T19:35:07.459Z,23.30
2022-12-03T19:37:33.935Z,21.88
2022-12-03T19:40:01.704Z,23.60
2022-12-03T19:42:28.450Z,22.55
2022-12-03T19:44:54.886Z,24.42
2022-12-03T19:47:21.310Z,24.83
2022-12-03T19:49:47.692Z,23.67
2022-12-03T19:52:14.069Z,23.75
2022-12-03T19:54:40.392Z,23.95
2022-12-03T19:57:06.727Z,24.38
2022-12-03T19:59:33.291Z,24.40
2022-12-03T20:02:00.012Z,23.25
2022-12-03T20:04:26.473Z,24.38
2022-12-03T20:06:52.805Z,23.83
2022-12-03T20:09:20.670Z,24.48
2022-12-03T20:11:49.530Z,22.65
2022-12-03T20:14:16.682Z,24.27
2022-12-03T20:16:43.834Z,21.42
2022-12-03T20:19:11.506Z,23.38
2022-12-03T20:21:38.230Z,25.42
2022-12-03T20:24:06.497Z,23.42
2022-12-03T20:26:33.450Z,23.45
2022-12-03T20:29:00.043Z,22.90
2022-12-03T20:31:27.894Z,24.70
2022-12-03T20:33:55.744Z,23.23
2022-12-03T20:36:22.863Z,22.92
2022-12-03T20:38:53.131Z,23.25
2022-12-03T20:41:19.465Z,24.35
2022-12-03T20:43:46.085Z,23.52
2022-12-03T20:46:13.741Z,24.15
2022-12-03T20:48:40.746Z,23.98
2022-12-03T20:51:08.028Z,25.50
2022-12-03T20:53:34.687Z,24.27
2022-12-03T20:56:04.580Z,24.52
2022-12-03T20:58:31.470Z,24.65
2022-12-03T21:01:27.172Z,23.65
2022-12-03T21:03:54.699Z,24.35
2022-12-03T21:06:21.625Z,23.08
2022-12-03T21:08:49.144Z,22.65
2022-12-03T21:11:20.027Z,22.85
2022-12-03T21:13:46.683Z,23.67
2022-12-03T21:16:14.342Z,24.00
2022-12-03T21:18:40.922Z,23.48
2022-12-03T21:21:08.470Z,24.08
2022-12-03T21:23:37.311Z,24.25
2022-12-03T21:26:08.080Z,22.33
2022-12-03T21:28:34.501Z,23.33
2022-12-03T21:31:05.190Z,23.58
2022-12-03T21:33:32.237Z,22.55
2022-12-03T21:36:01.547Z,22.90
2022-12-03T21:38:29.531Z,22.92
2022-12-03T21:40:56.185Z,22.58
2022-12-03T21:43:22.759Z,23.08
2022-12-03T21:45:49.519Z,23.33
2022-12-03T21:48:19.184Z,22.92
2022-12-03T21:50:45.983Z,22.63
2022-12-03T21:53:13.016Z,23.83
2022-12-03T21:55:40.546Z,21.73
2022-12-03T21:58:10.045Z,23.38
2022-12-03T22:00:36.471Z,24.13
2022-12-03T22:03:06.383Z,23.10
2022-12-03T22:05:32.727Z,22.73
2022-12-03T22:07:59.166Z,24.23
2022-12-03T22:10:25.608Z,23.60
2022-12-03T22:12:51.933Z,23.73
2022-12-03T22:15:19.581Z,23.05
2022-12-03T22:17:46.878Z,24.02
2022-12-03T22:20:13.488Z,23.58
2022-12-03T22:22:39.820Z,23.75
2022-12-03T22:25:09.269Z,23.45
2022-12-03T22:27:41.039Z,23.67
2022-12-03T22:30:08.014Z,23.20
2022-12-03T22:32:34.657Z,23.17
2022-12-03T22:35:07.157Z,22.85
2022-12-03T22:37:33.599Z,23.63
2022-12-03T22:40:00.080Z,23.23
2022-12-03T22:42:26.515Z,23.33
2022-12-03T22:44:52.846Z,25.15
2022-12-03T22:47:19.219Z,23.52
2022-12-03T22:49:45.657Z,23.58
2022-12-03T22:52:11.937Z,24.52
2022-12-03T22:54:38.424Z,23.55
2022-12-03T22:57:04.858Z,24.42
2022-12-03T22:59:31.186Z,23.13
2022-12-03T23:01:57.959Z,22.88
2022-12-03T23:04:27.141Z,24.77
2022-12-03T23:06:54.578Z,25.58
2022-12-03T23:09:20.996Z,23.95
2022-12-03T23:11:47.343Z,23.80
2022-12-03T23:14:23.094Z,24.77
2022-12-03T23:16:49.473Z,24.35
2022-12-03T23:19:16.400Z,25.23
2022-12-03T23:21:42.739Z,25.67
2022-12-03T23:24:10.265Z,26.45
2022-12-03T23:26:37.224Z,25.20
2022-12-03T23:29:05.249Z,24.33
2022-12-03T23:31:32.892Z,24.58
2022-12-03T23:34:01.729Z,24.13
2022-12-03T23:36:29.508Z,25.50
2022-12-03T23:38:55.914Z,27.05
2022-12-03T23:41:22.759Z,25.38
2022-12-03T23:43:49.495Z,25.73
2022-12-03T23:46:18.681Z,27.08
2022-12-03T23:48:45.822Z,25.58
2022-12-03T23:51:13.489Z,26.42
2022-12-03T23:53:40.209Z,25.67
2022-12-03T23:56:11.298Z,26.67
2022-12-03T23:58:38.551Z,25.08
